Time;durP1;ratioP1;P1;durP2;ratioP2;P2;SDS_P1;SDS_P2;PMS_P1;PMS_P2;Temp;Humidity;BMP_temperature;BMP_pressure;BME280_temperature;BME280_humidity;BME280_pressure;Samples;Min_cycle;Max_cycle;Signal;HPM_P1;HPM_P2
2022/05/08 00:02:09;;;;;;;;;;;21.70;54.60;;;;;;5004712;28;19918;-55
2022/05/08 00:04:35;;;;;;;;;;;21.70;54.60;;;;;;5004335;28;19932;-53
2022/05/08 00:07:00;;;;;;;;;;;21.70;54.70;;;;;;5004200;28;19926;-52
2022/05/08 00:09:25;;;;;;;;;;;21.70;54.60;;;;;;5003631;28;19913;-51
2022/05/08 00:11:52;;;;;;;;;;;21.70;54.60;;;;;;5004455;28;19914;-52
2022/05/08 00:14:17;;;;;;;;;;;21.70;54.60;;;;;;5004641;28;19944;-53
2022/05/08 00:16:43;;;;;;;;;;;21.70;54.60;;;;;;5008131;28;19968;-54
2022/05/08 00:19:08;;;;;;;;;;;21.70;54.60;;;;;;5007707;28;19921;-54
2022/05/08 00:21:34;;;;;;;;;;;21.70;54.60;;;;;;5007986;28;20055;-51
2022/05/08 00:23:59;;;;;;;;;;;21.70;54.60;;;;;;5007669;28;19945;-51
2022/05/08 00:26:25;;;;;;;;;;;21.70;54.60;;;;;;5007725;28;19926;-51
2022/05/08 00:28:50;;;;;;;;;;;21.70;54.60;;;;;;5006934;28;19917;-55
2022/05/08 00:31:16;;;;;;;;;;;21.70;54.60;;;;;;5007611;28;19936;-54
2022/05/08 00:33:41;;;;;;;;;;;21.70;54.60;;;;;;5007752;28;19913;-55
2022/05/08 00:36:07;;;;;;;;;;;21.70;54.60;;;;;;5008335;28;19971;-53
2022/05/08 00:38:32;;;;;;;;;;;21.70;54.60;;;;;;5007596;28;19920;-53
2022/05/08 00:40:58;;;;;;;;;;;21.70;54.60;;;;;;5008121;28;19995;-51
2022/05/08 00:43:43;;;;;;;;;;;21.70;54.60;;;;;;5007915;28;19914;-55
2022/05/08 00:46:09;;;;;;;;;;;21.70;54.60;;;;;;5006899;28;20438;-53
2022/05/08 00:48:35;;;;;;;;;;;21.70;54.60;;;;;;5007189;28;19917;-55
2022/05/08 00:51:01;;;;;;;;;;;21.70;54.60;;;;;;5007878;28;20296;-52
2022/05/08 00:53:27;;;;;;;;;;;21.70;54.60;;;;;;5022724;28;19952;-52
2022/05/08 00:55:54;;;;;;;;;;;21.70;54.60;;;;;;5022765;28;19913;-53
2022/05/08 00:58:19;;;;;;;;;;;21.70;54.60;;;;;;5007014;28;19913;-49
2022/05/08 01:00:45;;;;;;;;;;;21.70;54.60;;;;;;5006930;28;20569;-55
2022/05/08 01:03:11;;;;;;;;;;;21.60;54.50;;;;;;5007550;28;20371;-54
2022/05/08 01:05:39;;;;;;;;;;;21.60;54.50;;;;;;5007956;28;20523;-54
2022/05/08 01:08:04;;;;;;;;;;;21.70;54.60;;;;;;5007455;28;19914;-57
2022/05/08 01:10:30;;;;;;;;;;;21.60;54.60;;;;;;5006274;28;19913;-55
2022/05/08 01:12:55;;;;;;;;;;;21.60;54.60;;;;;;5021879;28;20300;-54
2022/05/08 01:15:21;;;;;;;;;;;21.70;54.70;;;;;;5007213;28;19914;-55
2022/05/08 01:17:46;;;;;;;;;;;21.70;54.70;;;;;;5007001;28;19913;-54
2022/05/08 01:20:12;;;;;;;;;;;21.60;54.60;;;;;;5006681;28;19913;-52
2022/05/08 01:22:37;;;;;;;;;;;21.60;54.60;;;;;;5007156;28;19921;-54
2022/05/08 01:25:03;;;;;;;;;;;21.60;54.60;;;;;;5006171;28;19913;-54
2022/05/08 01:27:28;;;;;;;;;;;21.70;54.60;;;;;;5006449;28;20434;-53
2022/05/08 01:29:54;;;;;;;;;;;21.60;54.60;;;;;;5005474;28;20158;-55
2022/05/08 01:32:19;;;;;;;;;;;21.70;54.60;;;;;;5006426;28;20416;-54
2022/05/08 01:34:45;;;;;;;;;;;21.60;54.60;;;;;;5005941;28;19956;-53
2022/05/08 01:37:10;;;;;;;;;;;21.60;54.60;;;;;;5005448;28;20104;-52
2022/05/08 01:39:36;;;;;;;;;;;21.60;54.60;;;;;;5020780;28;20008;-55
2022/05/08 01:42:04;;;;;;;;;;;21.70;54.70;;;;;;5005551;28;19945;-55
2022/05/08 01:44:30;;;;;;;;;;;21.60;54.60;;;;;;5005515;28;19921;-54
2022/05/08 01:48:21;;;;;;;;;;;21.60;54.60;;;;;;5005106;28;20040;-53
2022/05/08 01:49:41;;;;;;;;;;;21.60;54.60;;;;;;5004789;28;19960;-51
2022/05/08 01:52:07;;;;;;;;;;;21.60;54.60;;;;;;5005234;28;19913;-52
2022/05/08 01:54:32;;;;;;;;;;;21.60;54.60;;;;;;5005208;28;19918;-53
2022/05/08 01:56:58;;;;;;;;;;;21.60;54.60;;;;;;5006168;28;20164;-56
2022/05/08 01:59:24;;;;;;;;;;;21.60;54.60;;;;;;5020518;28;19914;-54
2022/05/08 02:01:49;;;;;;;;;;;21.60;54.60;;;;;;5006176;28;20649;-54
2022/05/08 02:04:15;;;;;;;;;;;21.60;54.60;;;;;;5006217;28;19925;-53
2022/05/08 02:06:44;;;;;;;;;;;21.60;54.60;;;;;;5006481;28;19984;-51
2022/05/08 02:09:09;;;;;;;;;;;21.60;54.60;;;;;;5005508;28;20375;-54
2022/05/08 02:11:35;;;;;;;;;;;21.60;54.60;;;;;;5006147;28;19946;-57
2022/05/08 02:14:02;;;;;;;;;;;21.50;54.50;;;;;;5005967;28;19964;-55
2022/05/08 02:16:28;;;;;;;;;;;21.60;54.60;;;;;;5006031;28;19919;-56
2022/05/08 02:18:53;;;;;;;;;;;21.60;54.60;;;;;;5005539;28;19914;-57
2022/05/08 02:21:19;;;;;;;;;;;21.60;54.60;;;;;;5005856;28;19920;-56
2022/05/08 02:23:44;;;;;;;;;;;21.60;54.60;;;;;;5005750;28;19925;-56
2022/05/08 02:26:10;;;;;;;;;;;21.60;54.60;;;;;;5006869;28;19918;-54
2022/05/08 02:28:35;;;;;;;;;;;21.50;54.50;;;;;;5021550;28;20660;-57
2022/05/08 02:31:01;;;;;;;;;;;21.60;54.60;;;;;;5007629;28;20014;-54
2022/05/08 02:33:26;;;;;;;;;;;21.60;54.60;;;;;;5007080;28;19914;-55
2022/05/08 02:35:52;;;;;;;;;;;21.50;54.60;;;;;;5006007;28;19913;-58
2022/05/08 02:38:17;;;;;;;;;;;21.60;54.60;;;;;;5005464;28;19914;-54
2022/05/08 02:40:42;;;;;;;;;;;21.60;54.60;;;;;;5005843;28;19913;-56
2022/05/08 02:43:08;;;;;;;;;;;21.50;54.50;;;;;;5006749;28;19920;-57
2022/05/08 02:45:33;;;;;;;;;;;21.50;54.50;;;;;;5005851;28;19975;-53
2022/05/08 02:47:59;;;;;;;;;;;21.50;54.60;;;;;;5004590;28;19914;-56
2022/05/08 02:50:25;;;;;;;;;;;21.50;54.60;;;;;;5005729;28;19925;-56
2022/05/08 02:52:51;;;;;;;;;;;21.60;54.60;;;;;;5006047;28;19971;-54
2022/05/08 03:00:45;;;;;;;;;;;21.50;54.60;;;;;;5005396;28;19967;-54
2022/05/08 03:03:10;;;;;;;;;;;21.50;54.60;;;;;;5006066;28;19917;-57
2022/05/08 03:05:36;;;;;;;;;;;21.50;54.60;;;;;;5006029;28;19921;-57
2022/05/08 03:08:01;;;;;;;;;;;21.50;54.60;;;;;;5003618;28;19925;-57
2022/05/08 03:10:27;;;;;;;;;;;21.50;54.60;;;;;;5004892;28;19913;-58
2022/05/08 03:12:52;;;;;;;;;;;21.50;54.60;;;;;;5005478;28;19917;-55
2022/05/08 03:15:18;;;;;;;;;;;21.50;54.60;;;;;;5004983;28;20133;-56
2022/05/08 03:17:43;;;;;;;;;;;21.50;54.60;;;;;;5004833;28;19914;-56
2022/05/08 03:20:10;;;;;;;;;;;21.50;54.60;;;;;;5004201;28;19984;-58
2022/05/08 03:22:35;;;;;;;;;;;21.50;54.60;;;;;;5004005;28;19928;-58
2022/05/08 03:25:01;;;;;;;;;;;21.50;54.60;;;;;;5004472;28;19914;-58
2022/05/08 03:27:26;;;;;;;;;;;21.50;54.60;;;;;;5004603;28;19921;-57
2022/05/08 03:29:52;;;;;;;;;;;21.50;54.60;;;;;;5004171;28;20393;-56
2022/05/08 03:32:17;;;;;;;;;;;21.40;54.60;;;;;;5004708;28;19913;-56
2022/05/08 03:34:43;;;;;;;;;;;21.50;55.00;;;;;;5004270;28;19914;-54
2022/05/08 03:37:08;;;;;;;;;;;21.40;54.60;;;;;;5006103;28;19914;-54
2022/05/08 03:39:33;;;;;;;;;;;21.50;54.60;;;;;;5005108;28;19964;-55
2022/05/08 03:41:59;;;;;;;;;;;21.50;54.70;;;;;;5005792;28;19914;-57
2022/05/08 03:44:24;;;;;;;;;;;21.40;54.60;;;;;;5005998;28;20379;-55
2022/05/08 03:46:50;;;;;;;;;;;21.50;54.60;;;;;;5005551;28;19921;-60
2022/05/08 03:49:15;;;;;;;;;;;21.50;54.60;;;;;;5007898;28;19920;-59
2022/05/08 03:51:41;;;;;;;;;;;21.40;54.60;;;;;;5010247;28;20474;-56
2022/05/08 03:54:09;;;;;;;;;;;21.40;54.50;;;;;;5009350;28;19921;-57
2022/05/08 03:56:34;;;;;;;;;;;21.50;54.60;;;;;;5009184;28;19977;-59
2022/05/08 03:59:00;;;;;;;;;;;21.50;54.60;;;;;;5008490;28;20339;-57
2022/05/08 04:01:26;;;;;;;;;;;21.40;54.60;;;;;;5009222;28;19920;-57
2022/05/08 04:03:51;;;;;;;;;;;21.40;54.60;;;;;;5008740;28;19918;-57
2022/05/08 04:06:17;;;;;;;;;;;21.50;54.70;;;;;;5008235;28;20259;-56
2022/05/08 04:08:42;;;;;;;;;;;21.40;54.60;;;;;;5008268;28;19913;-59
2022/05/08 04:11:08;;;;;;;;;;;21.40;54.60;;;;;;5007750;28;21488;-58
2022/05/08 04:13:34;;;;;;;;;;;21.40;54.60;;;;;;5009094;28;19929;-56
2022/05/08 04:16:17;;;;;;;;;;;21.40;54.60;;;;;;5008351;28;19913;-54
2022/05/08 04:18:43;;;;;;;;;;;21.40;54.60;;;;;;5021248;28;20417;-58
2022/05/08 04:21:08;;;;;;;;;;;21.40;54.60;;;;;;5007847;28;19973;-55
2022/05/08 04:26:17;;;;;;;;;;;21.40;54.60;;;;;;5007882;28;20325;-56
2022/05/08 04:28:43;;;;;;;;;;;21.40;54.60;;;;;;5007568;28;19914;-51
2022/05/08 04:31:08;;;;;;;;;;;21.40;54.60;;;;;;5008147;28;19921;-53
2022/05/08 04:33:34;;;;;;;;;;;21.40;54.60;;;;;;5008002;28;19944;-56
2022/05/08 04:35:59;;;;;;;;;;;21.40;54.60;;;;;;5007704;28;20331;-59
2022/05/08 04:38:25;;;;;;;;;;;21.40;54.60;;;;;;5022819;28;19921;-58
2022/05/08 04:40:50;;;;;;;;;;;21.30;54.60;;;;;;5022540;28;20441;-57
2022/05/08 04:43:16;;;;;;;;;;;21.40;54.60;;;;;;5007620;28;19913;-55
2022/05/08 04:45:41;;;;;;;;;;;21.40;54.60;;;;;;5023457;28;19917;-58
2022/05/08 04:48:07;;;;;;;;;;;21.40;54.60;;;;;;5007188;28;19917;-56
2022/05/08 04:50:32;;;;;;;;;;;21.40;54.60;;;;;;5006870;28;20410;-58
2022/05/08 04:52:58;;;;;;;;;;;21.40;54.60;;;;;;5007438;28;19913;-57
2022/05/08 04:55:23;;;;;;;;;;;21.40;54.50;;;;;;5007356;28;19920;-55
2022/05/08 04:57:49;;;;;;;;;;;21.40;54.50;;;;;;5006805;28;20186;-58
2022/05/08 05:00:15;;;;;;;;;;;21.40;54.50;;;;;;5005769;28;19917;-55
2022/05/08 05:02:41;;;;;;;;;;;21.40;54.60;;;;;;5006195;28;20109;-57
2022/05/08 05:05:07;;;;;;;;;;;21.40;54.60;;;;;;5022103;28;19917;-56
2022/05/08 05:07:32;;;;;;;;;;;21.40;54.60;;;;;;5022248;28;20150;-55
2022/05/08 05:09:58;;;;;;;;;;;21.40;54.60;;;;;;5006391;28;19964;-55
2022/05/08 05:12:23;;;;;;;;;;;21.40;54.60;;;;;;5006534;28;19957;-57
2022/05/08 05:14:49;;;;;;;;;;;21.40;54.60;;;;;;5007221;28;19944;-58
2022/05/08 05:17:14;;;;;;;;;;;21.40;54.70;;;;;;5006851;28;19920;-58
2022/05/08 05:19:40;;;;;;;;;;;21.40;54.60;;;;;;5007198;28;19968;-58
2022/05/08 05:22:05;;;;;;;;;;;21.40;54.70;;;;;;5006978;28;19913;-56
2022/05/08 05:24:31;;;;;;;;;;;21.40;54.70;;;;;;5007338;28;20399;-56
2022/05/08 05:26:56;;;;;;;;;;;21.30;54.70;;;;;;5006546;28;20000;-57
2022/05/08 05:29:22;;;;;;;;;;;21.40;54.70;;;;;;5007037;28;20112;-57
2022/05/08 05:31:47;;;;;;;;;;;21.30;54.70;;;;;;5006973;28;19921;-55
2022/05/08 05:34:12;;;;;;;;;;;21.30;54.70;;;;;;5007693;28;19913;-58
2022/05/08 05:36:38;;;;;;;;;;;21.30;54.70;;;;;;5006234;28;20406;-56
2022/05/08 05:39:03;;;;;;;;;;;21.30;54.70;;;;;;5004963;28;19928;-57
2022/05/08 05:41:29;;;;;;;;;;;21.30;54.70;;;;;;5006586;28;19917;-58
2022/05/08 05:43:54;;;;;;;;;;;21.30;54.70;;;;;;5006889;28;19917;-55
2022/05/08 05:49:04;;;;;;;;;;;21.30;54.70;;;;;;5005985;28;19929;-57
2022/05/08 05:51:30;;;;;;;;;;;21.30;54.80;;;;;;5006301;28;19914;-57
2022/05/08 05:53:55;;;;;;;;;;;21.30;54.70;;;;;;5005978;28;19925;-59
2022/05/08 05:56:20;;;;;;;;;;;21.30;54.80;;;;;;5006393;28;20287;-55
2022/05/08 05:58:46;;;;;;;;;;;21.30;54.70;;;;;;5006167;28;19913;-58
2022/05/08 06:01:11;;;;;;;;;;;21.30;54.70;;;;;;5006593;28;19914;-58
2022/05/08 06:03:38;;;;;;;;;;;21.30;54.80;;;;;;5006769;28;19928;-57
2022/05/08 06:06:04;;;;;;;;;;;21.30;54.80;;;;;;5006029;28;19925;-58
2022/05/08 06:08:29;;;;;;;;;;;21.30;54.80;;;;;;5005302;28;19913;-58
2022/05/08 06:10:55;;;;;;;;;;;21.30;54.80;;;;;;5005554;28;19972;-55
2022/05/08 06:13:21;;;;;;;;;;;21.30;54.80;;;;;;5005037;28;19914;-55
2022/05/08 06:15:47;;;;;;;;;;;21.30;54.80;;;;;;5006351;28;20309;-58
2022/05/08 06:18:12;;;;;;;;;;;21.30;54.80;;;;;;5005870;28;19955;-59
2022/05/08 06:20:38;;;;;;;;;;;21.30;54.80;;;;;;5004947;28;19918;-58
2022/05/08 06:23:04;;;;;;;;;;;21.30;54.90;;;;;;5041845;22;20356;-54
2022/05/08 06:25:29;;;;;;;;;;;21.30;54.80;;;;;;5026438;28;19913;-55
2022/05/08 06:27:55;;;;;;;;;;;21.30;54.90;;;;;;5025800;28;19928;-53
2022/05/08 06:30:20;;;;;;;;;;;21.30;55.00;;;;;;5006525;28;20290;-53
2022/05/08 06:32:45;;;;;;;;;;;21.30;54.90;;;;;;5006324;28;20036;-53
2022/05/08 06:35:11;;;;;;;;;;;21.30;54.90;;;;;;5007082;28;19917;-55
2022/05/08 06:37:36;;;;;;;;;;;21.30;54.90;;;;;;5006280;28;20330;-55
2022/05/08 06:40:02;;;;;;;;;;;21.30;54.90;;;;;;4999011;28;19920;-54
2022/05/08 06:42:27;;;;;;;;;;;21.20;54.90;;;;;;5006173;28;19920;-53
2022/05/08 06:44:53;;;;;;;;;;;21.20;55.00;;;;;;5005551;28;19917;-53
2022/05/08 06:47:18;;;;;;;;;;;21.20;55.00;;;;;;5005642;28;19933;-55
2022/05/08 06:49:44;;;;;;;;;;;21.20;55.00;;;;;;5004714;28;20286;-54
2022/05/08 06:52:09;;;;;;;;;;;21.20;55.10;;;;;;5005882;28;19921;-52
2022/05/08 06:54:34;;;;;;;;;;;21.20;55.40;;;;;;5005710;28;19914;-57
2022/05/08 06:57:00;;;;;;;;;;;21.30;55.70;;;;;;5005334;28;19913;-56
2022/05/08 07:02:11;;;;;;;;;;;21.20;55.80;;;;;;5006398;28;20432;-53
2022/05/08 07:04:40;;;;;;;;;;;21.30;55.80;;;;;;5006119;28;19921;-54
2022/05/08 07:07:05;;;;;;;;;;;21.20;55.90;;;;;;5005703;28;19918;-52
2022/05/08 07:09:32;;;;;;;;;;;21.20;56.00;;;;;;5004525;28;20605;-56
2022/05/08 07:11:57;;;;;;;;;;;21.20;56.00;;;;;;5005682;28;20004;-52
2022/05/08 07:14:23;;;;;;;;;;;21.30;56.10;;;;;;5005546;28;19918;-53
2022/05/08 07:16:48;;;;;;;;;;;21.20;56.10;;;;;;5005161;28;19936;-55
2022/05/08 07:19:14;;;;;;;;;;;21.20;56.20;;;;;;5005967;28;19913;-54
2022/05/08 07:21:39;;;;;;;;;;;21.30;56.20;;;;;;5004840;28;19968;-55
2022/05/08 07:24:05;;;;;;;;;;;21.20;56.60;;;;;;5006749;28;20323;-53
2022/05/08 07:26:31;;;;;;;;;;;21.30;56.80;;;;;;5007407;28;19928;-52
2022/05/08 07:28:56;;;;;;;;;;;21.30;56.60;;;;;;5005917;28;19942;-53
2022/05/08 07:31:22;;;;;;;;;;;21.30;56.50;;;;;;5006126;28;19917;-57
2022/05/08 07:36:12;;;;;;;;;;;21.30;56.60;;;;;;5006947;28;19921;-54
2022/05/08 07:36:33;;;;;;;;;;;21.30;56.60;;;;;;5006312;28;19925;-54
2022/05/08 07:38:59;;;;;;;;;;;21.30;56.60;;;;;;5006546;28;19924;-52
2022/05/08 07:41:24;;;;;;;;;;;21.30;56.50;;;;;;5007165;28;20036;-54
2022/05/08 07:43:50;;;;;;;;;;;21.40;56.50;;;;;;5006255;28;20359;-55
2022/05/08 07:46:15;;;;;;;;;;;21.30;56.40;;;;;;5005508;28;19918;-55
2022/05/08 07:48:41;;;;;;;;;;;21.30;56.30;;;;;;5006061;28;19913;-56
2022/05/08 07:51:06;;;;;;;;;;;21.30;56.30;;;;;;5006322;28;19937;-54
2022/05/08 07:53:32;;;;;;;;;;;21.30;56.20;;;;;;5006661;28;19964;-56
2022/05/08 07:55:58;;;;;;;;;;;21.30;56.20;;;;;;5007406;28;19924;-54
2022/05/08 07:58:23;;;;;;;;;;;21.30;56.10;;;;;;5006228;28;19922;-51
2022/05/08 08:00:49;;;;;;;;;;;21.30;56.10;;;;;;5005773;28;19944;-53
2022/05/08 08:03:16;;;;;;;;;;;21.30;56.10;;;;;;5006925;28;20282;-55
2022/05/08 08:05:41;;;;;;;;;;;21.30;56.10;;;;;;5006379;28;19971;-55
2022/05/08 08:08:06;;;;;;;;;;;21.30;56.10;;;;;;5006066;28;19914;-55
2022/05/08 08:10:32;;;;;;;;;;;21.30;56.10;;;;;;5006362;28;19918;-55
2022/05/08 08:12:58;;;;;;;;;;;21.30;56.10;;;;;;5006178;28;19913;-55
2022/05/08 08:15:23;;;;;;;;;;;21.30;56.40;;;;;;5006739;28;19922;-54
2022/05/08 08:17:49;;;;;;;;;;;21.30;57.00;;;;;;5006269;28;19913;-55
2022/05/08 08:20:14;;;;;;;;;;;21.30;57.20;;;;;;5005655;28;19920;-52
2022/05/08 08:22:40;;;;;;;;;;;21.30;57.20;;;;;;5005595;28;19928;-54
2022/05/08 08:25:05;;;;;;;;;;;21.30;57.30;;;;;;5005341;28;19920;-57
2022/05/08 08:27:31;;;;;;;;;;;21.30;57.30;;;;;;5004210;28;19994;-56
2022/05/08 08:29:56;;;;;;;;;;;21.30;57.40;;;;;;4983233;28;19921;-56
2022/05/08 08:32:22;;;;;;;;;;;21.30;57.30;;;;;;5002633;28;19917;-54
2022/05/08 08:34:48;;;;;;;;;;;21.30;57.40;;;;;;5005153;28;19918;-54
2022/05/08 08:37:13;;;;;;;;;;;21.30;57.50;;;;;;5006793;28;19914;-53
2022/05/08 08:39:39;;;;;;;;;;;21.30;57.40;;;;;;5006657;28;19913;-53
2022/05/08 08:42:23;;;;;;;;;;;21.30;57.50;;;;;;5016407;28;19917;-58
2022/05/08 08:47:44;;;;;;;;;;;21.30;57.50;;;;;;5009059;28;19944;-55
2022/05/08 08:50:09;;;;;;;;;;;21.30;57.40;;;;;;5007360;28;19925;-58
2022/05/08 08:52:35;;;;;;;;;;;21.30;57.50;;;;;;5006867;28;19922;-55
2022/05/08 08:55:00;;;;;;;;;;;21.30;57.80;;;;;;5007107;28;19914;-59
2022/05/08 08:57:26;;;;;;;;;;;21.30;57.60;;;;;;5006330;28;19920;-58
2022/05/08 08:59:51;;;;;;;;;;;21.30;57.60;;;;;;5006252;28;20298;-59
2022/05/08 09:02:17;;;;;;;;;;;21.30;57.60;;;;;;5006239;28;19914;-57
2022/05/08 09:04:44;;;;;;;;;;;21.30;57.60;;;;;;5005278;28;20008;-58
2022/05/08 09:07:28;;;;;;;;;;;21.20;57.50;;;;;;5005363;28;20400;-57
2022/05/08 09:10:05;;;;;;;;;;;21.20;57.50;;;;;;5006713;28;19924;-52
2022/05/08 09:12:30;;;;;;;;;;;21.30;57.60;;;;;;5007416;28;19940;-53
2022/05/08 09:14:56;;;;;;;;;;;21.30;57.50;;;;;;5007300;28;19913;-51
2022/05/08 09:17:21;;;;;;;;;;;21.20;57.50;;;;;;5007278;28;19913;-54
2022/05/08 09:19:47;;;;;;;;;;;21.20;57.50;;;;;;5006882;28;19936;-53
2022/05/08 09:22:15;;;;;;;;;;;21.20;57.40;;;;;;5007129;28;19913;-55
2022/05/08 09:24:53;;;;;;;;;;;21.20;57.40;;;;;;5007269;28;19921;-52
2022/05/08 09:27:19;;;;;;;;;;;21.20;57.30;;;;;;5006616;28;19921;-56
2022/05/08 09:29:44;;;;;;;;;;;21.20;57.20;;;;;;5007343;28;20434;-58
2022/05/08 09:32:10;;;;;;;;;;;21.20;57.10;;;;;;5005519;28;19914;-55
2022/05/08 09:34:57;;;;;;;;;;;21.20;57.10;;;;;;5006701;28;20021;-53
2022/05/08 09:37:23;;;;;;;;;;;21.20;57.10;;;;;;5005256;28;19937;-55
2022/05/08 09:39:48;;;;;;;;;;;21.20;57.00;;;;;;5006529;28;19913;-53
2022/05/08 09:42:32;;;;;;;;;;;21.20;57.00;;;;;;5006937;28;20293;-51
2022/05/08 09:45:07;;;;;;;;;;;21.20;56.90;;;;;;5006612;28;19914;-54
2022/05/08 09:47:43;;;;;;;;;;;21.20;56.90;;;;;;5004988;28;20325;-53
2022/05/08 09:50:08;;;;;;;;;;;21.20;56.80;;;;;;5002134;28;19913;-52
2022/05/08 09:52:35;;;;;;;;;;;21.20;56.90;;;;;;5004142;28;20313;-54
2022/05/08 09:55:03;;;;;;;;;;;21.20;56.80;;;;;;4993446;28;19936;-53
2022/05/08 09:57:28;;;;;;;;;;;21.20;56.80;;;;;;5003289;28;19917;-53
2022/05/08 09:59:54;;;;;;;;;;;21.20;56.80;;;;;;5002499;28;19914;-55
2022/05/08 10:02:19;;;;;;;;;;;21.20;56.80;;;;;;5003960;28;19913;-56
2022/05/08 10:04:45;;;;;;;;;;;21.20;56.70;;;;;;4995429;28;19913;-54
2022/05/08 10:07:11;;;;;;;;;;;21.20;56.70;;;;;;5005111;28;20612;-51
2022/05/08 10:15:15;;;;;;;;;;;21.30;56.60;;;;;;5004157;28;19936;-49
2022/05/08 10:17:41;;;;;;;;;;;21.30;56.50;;;;;;5005612;28;19924;-53
2022/05/08 10:20:07;;;;;;;;;;;21.30;56.50;;;;;;5002386;28;20177;-54
2022/05/08 10:22:45;;;;;;;;;;;21.30;56.40;;;;;;5005270;28;19971;-54
2022/05/08 10:25:15;;;;;;;;;;;21.30;56.40;;;;;;5006961;28;19963;-53
2022/05/08 10:27:40;;;;;;;;;;;21.30;56.40;;;;;;5005412;28;19949;-53
2022/05/08 10:30:06;;;;;;;;;;;21.30;56.40;;;;;;4992314;28;19945;-54
2022/05/08 10:32:31;;;;;;;;;;;21.30;56.30;;;;;;5004696;28;19914;-54
2022/05/08 10:35:09;;;;;;;;;;;21.30;56.30;;;;;;4995449;28;19913;-56
2022/05/08 10:37:34;;;;;;;;;;;21.30;56.30;;;;;;5002732;28;19944;-53
2022/05/08 10:40:01;;;;;;;;;;;21.30;56.40;;;;;;5003694;28;19917;-56
2022/05/08 10:42:33;;;;;;;;;;;21.30;56.30;;;;;;5004093;28;19922;-56
2022/05/08 10:45:02;;;;;;;;;;;21.30;56.40;;;;;;5004887;28;19948;-54
2022/05/08 10:47:33;;;;;;;;;;;21.30;56.60;;;;;;5004244;28;19917;-55
2022/05/08 10:49:59;;;;;;;;;;;21.30;56.80;;;;;;5004779;28;19919;-55
2022/05/08 10:52:24;;;;;;;;;;;21.30;56.90;;;;;;5005938;28;19913;-55
2022/05/08 10:54:56;;;;;;;;;;;21.30;56.90;;;;;;5005403;28;20298;-55
2022/05/08 10:57:31;;;;;;;;;;;21.30;57.60;;;;;;5005160;28;19920;-55
2022/05/08 10:59:57;;;;;;;;;;;21.30;57.00;;;;;;5004914;28;19920;-54
2022/05/08 11:02:41;;;;;;;;;;;21.30;57.00;;;;;;5005241;28;20577;-54
2022/05/08 11:05:07;;;;;;;;;;;21.30;57.00;;;;;;4995335;28;19921;-53
2022/05/08 11:07:32;;;;;;;;;;;21.30;57.10;;;;;;5005299;28;19918;-54
2022/05/08 11:09:58;;;;;;;;;;;21.30;56.80;;;;;;5005185;28;19921;-54
2022/05/08 11:12:24;;;;;;;;;;;21.30;56.90;;;;;;5005530;28;19917;-55
2022/05/08 11:14:50;;;;;;;;;;;21.30;57.10;;;;;;5004987;28;20059;-56
2022/05/08 11:17:15;;;;;;;;;;;21.30;56.80;;;;;;5005703;28;19914;-53
2022/05/08 11:19:53;;;;;;;;;;;21.30;57.00;;;;;;5004474;28;19917;-53
2022/05/08 11:22:18;;;;;;;;;;;21.30;56.90;;;;;;5005634;28;19922;-53
2022/05/08 11:24:49;;;;;;;;;;;21.30;56.80;;;;;;5005223;28;20254;-55
2022/05/08 11:27:14;;;;;;;;;;;21.30;56.60;;;;;;5005254;28;19918;-54
2022/05/08 11:29:49;;;;;;;;;;;21.30;56.70;;;;;;5004921;28;19971;-55
2022/05/08 11:38:02;;;;;;;;;;;21.30;56.50;;;;;;5004892;28;19920;-55
2022/05/08 11:40:27;;;;;;;;;;;21.30;56.50;;;;;;5004406;28;20007;-54
2022/05/08 11:42:53;;;;;;;;;;;21.30;56.30;;;;;;5003355;28;19949;-57
2022/05/08 11:45:18;;;;;;;;;;;21.30;56.30;;;;;;5004714;28;19913;-57
2022/05/08 11:47:50;;;;;;;;;;;21.30;56.40;;;;;;5003049;28;20301;-55
2022/05/08 11:50:16;;;;;;;;;;;21.40;56.40;;;;;;5004062;28;19921;-55
2022/05/08 11:52:41;;;;;;;;;;;21.40;56.20;;;;;;5004952;28;19914;-54
2022/05/08 11:55:08;;;;;;;;;;;21.40;56.80;;;;;;4957691;28;19921;-55
2022/05/08 11:57:43;;;;;;;;;;;21.40;57.90;;;;;;5004826;28;19953;-54
2022/05/08 12:00:10;;;;;;;;;;;21.50;58.00;;;;;;5003691;28;19945;-57
2022/05/08 12:02:42;;;;;;;;;;;21.50;57.80;;;;;;5004118;28;19956;-55
2022/05/08 12:05:17;;;;;;;;;;;21.50;57.70;;;;;;5004225;28;19913;-54
2022/05/08 12:07:45;;;;;;;;;;;21.50;57.60;;;;;;5003341;28;19960;-56
2022/05/08 12:10:10;;;;;;;;;;;21.60;57.60;;;;;;5004125;28;20032;-56
2022/05/08 12:12:37;;;;;;;;;;;21.60;57.60;;;;;;5008297;28;20584;-55
2022/05/08 12:15:10;;;;;;;;;;;21.60;57.60;;;;;;5008219;28;19913;-55
2022/05/08 12:17:41;;;;;;;;;;;21.60;57.40;;;;;;5010860;28;20156;-55
2022/05/08 12:20:13;;;;;;;;;;;21.60;57.20;;;;;;5008189;28;20601;-55
2022/05/08 12:22:38;;;;;;;;;;;21.60;57.60;;;;;;5009067;28;19928;-53
2022/05/08 12:25:04;;;;;;;;;;;21.70;57.90;;;;;;5009608;28;19913;-54
2022/05/08 12:27:29;;;;;;;;;;;21.70;57.80;;;;;;5008472;28;19977;-55
2022/05/08 12:29:55;;;;;;;;;;;21.70;57.70;;;;;;5006470;28;19961;-54
2022/05/08 12:32:21;;;;;;;;;;;21.60;57.70;;;;;;5007529;28;19960;-53
2022/05/08 12:34:46;;;;;;;;;;;21.60;57.70;;;;;;5006972;28;20374;-52
2022/05/08 12:37:13;;;;;;;;;;;21.50;58.20;;;;;;5007211;28;19921;-55
2022/05/08 12:39:38;;;;;;;;;;;21.50;57.50;;;;;;5006078;28;20367;-53
2022/05/08 12:42:04;;;;;;;;;;;21.50;57.40;;;;;;5008108;28;19921;-56
2022/05/08 12:44:30;;;;;;;;;;;21.50;57.40;;;;;;5007344;28;19993;-54
2022/05/08 12:46:56;;;;;;;;;;;21.50;57.40;;;;;;5007823;28;20709;-53
2022/05/08 12:49:21;;;;;;;;;;;21.50;57.30;;;;;;5006053;28;19914;-54
2022/05/08 12:51:47;;;;;;;;;;;21.50;57.30;;;;;;5007964;28;19917;-52
2022/05/08 12:54:12;;;;;;;;;;;21.50;57.10;;;;;;5008310;28;19917;-54
2022/05/08 12:56:38;;;;;;;;;;;21.50;57.00;;;;;;5008010;28;19920;-53
2022/05/08 13:01:49;;;;;;;;;;;21.50;57.20;;;;;;5007307;28;19948;-54
2022/05/08 13:04:14;;;;;;;;;;;21.60;57.90;;;;;;5006989;28;19972;-54
2022/05/08 13:06:41;;;;;;;;;;;21.60;57.90;;;;;;5008706;28;20362;-54
2022/05/08 13:09:09;;;;;;;;;;;21.60;57.70;;;;;;5006214;28;19920;-51
2022/05/08 13:11:35;;;;;;;;;;;21.70;57.80;;;;;;5007672;28;19921;-56
2022/05/08 13:14:00;;;;;;;;;;;21.70;57.70;;;;;;5013804;28;19914;-53
2022/05/08 13:16:26;;;;;;;;;;;21.70;57.40;;;;;;5010792;28;19919;-53
2022/05/08 13:18:51;;;;;;;;;;;21.60;57.30;;;;;;5009131;28;19936;-51
2022/05/08 13:21:17;;;;;;;;;;;21.60;57.10;;;;;;5008505;28;19977;-56
2022/05/08 13:23:42;;;;;;;;;;;21.60;57.00;;;;;;5006809;28;19922;-53
2022/05/08 13:26:08;;;;;;;;;;;21.60;57.00;;;;;;5007432;28;19949;-53
2022/05/08 13:28:34;;;;;;;;;;;21.60;57.00;;;;;;5005911;28;20322;-56
2022/05/08 13:31:00;;;;;;;;;;;21.60;57.00;;;;;;5007566;28;19922;-54
2022/05/08 13:33:25;;;;;;;;;;;21.50;56.90;;;;;;5006673;28;20496;-54
2022/05/08 13:35:51;;;;;;;;;;;21.50;56.90;;;;;;5006787;28;20289;-52
2022/05/08 13:38:18;;;;;;;;;;;21.50;56.80;;;;;;5005312;28;19913;-54
2022/05/08 13:40:44;;;;;;;;;;;21.50;56.90;;;;;;5006384;28;19964;-55
2022/05/08 13:43:09;;;;;;;;;;;21.50;57.40;;;;;;5006431;28;20377;-55
2022/05/08 13:45:35;;;;;;;;;;;21.40;57.70;;;;;;5006910;28;19936;-56
2022/05/08 13:48:00;;;;;;;;;;;21.50;57.10;;;;;;5006759;28;19945;-54
2022/05/08 13:50:26;;;;;;;;;;;21.50;56.90;;;;;;5005982;28;19927;-55
2022/05/08 13:52:52;;;;;;;;;;;21.50;56.80;;;;;;5005477;28;19918;-55
2022/05/08 13:55:17;;;;;;;;;;;21.50;56.70;;;;;;5006549;28;19940;-55
2022/05/08 13:57:43;;;;;;;;;;;21.50;56.90;;;;;;5005381;28;19960;-55
2022/05/08 14:00:14;;;;;;;;;;;21.50;57.20;;;;;;5005882;28;20303;-56
2022/05/08 14:02:40;;;;;;;;;;;21.60;57.30;;;;;;5006115;28;19924;-54
2022/05/08 14:05:05;;;;;;;;;;;21.70;57.30;;;;;;5005241;28;20294;-52
2022/05/08 14:07:31;;;;;;;;;;;21.70;57.30;;;;;;5005911;28;20048;-53
2022/05/08 14:09:56;;;;;;;;;;;21.70;57.20;;;;;;5005504;28;19967;-54
2022/05/08 14:12:22;;;;;;;;;;;21.80;57.00;;;;;;5004681;28;19921;-53
2022/05/08 14:14:47;;;;;;;;;;;21.80;57.10;;;;;;5004158;28;19914;-55
2022/05/08 14:17:12;;;;;;;;;;;21.80;57.10;;;;;;5004176;28;20389;-56
2022/05/08 14:19:38;;;;;;;;;;;21.80;57.20;;;;;;5004273;28;19913;-55
2022/05/08 14:22:03;;;;;;;;;;;21.80;56.90;;;;;;5004732;28;19921;-53
2022/05/08 14:24:29;;;;;;;;;;;21.80;57.10;;;;;;5005054;28;19944;-55
2022/05/08 14:26:54;;;;;;;;;;;21.80;57.00;;;;;;5004246;28;19921;-55
2022/05/08 14:29:22;;;;;;;;;;;21.90;57.00;;;;;;5003620;28;22335;-54
2022/05/08 14:37:15;;;;;;;;;;;21.90;56.90;;;;;;5004401;28;20315;-54
2022/05/08 14:39:41;;;;;;;;;;;21.90;56.90;;;;;;5003814;28;19914;-56
2022/05/08 14:42:06;;;;;;;;;;;21.90;56.90;;;;;;4992607;28;19998;-50
2022/05/08 14:44:32;;;;;;;;;;;21.90;56.70;;;;;;5006183;28;19928;-56
2022/05/08 14:46:57;;;;;;;;;;;21.90;56.70;;;;;;5004288;28;20345;-56
2022/05/08 14:49:22;;;;;;;;;;;21.80;56.60;;;;;;5003494;28;19928;-54